sensor_id;sensor_type;location;lat;lon;timestamp;temperature;humidity
9215;DHT22;4642;51.364;6.788;2023-06-14T00:00:38;16.40;99.90
9215;DHT22;4642;51.364;6.788;2023-06-14T00:03:07;16.30;99.90
9215;DHT22;4642;51.364;6.788;2023-06-14T00:05:35;16.30;99.90
9215;DHT22;4642;51.364;6.788;2023-06-14T00:08:06;16.20;99.90
9215;DHT22;4642;51.364;6.788;2023-06-14T00:10:33;16.20;99.90
9215;DHT22;4642;51.364;6.788;2023-06-14T00:13:03;16.30;99.90
9215;DHT22;4642;51.364;6.788;2023-06-14T00:15:30;16.20;99.90
9215;DHT22;4642;51.364;6.788;2023-06-14T00:17:59;16.10;99.90
9215;DHT22;4642;51.364;6.788;2023-06-14T00:20:27;16.10;99.90
9215;DHT22;4642;51.364;6.788;2023-06-14T00:22:53;16.10;99.90
9215;DHT22;4642;51.364;6.788;2023-06-14T00:25:21;16.10;99.90
9215;DHT22;4642;51.364;6.788;2023-06-14T00:27:47;16.00;99.90
9215;DHT22;4642;51.364;6.788;2023-06-14T00:30:13;16.00;99.90
9215;DHT22;4642;51.364;6.788;2023-06-14T00:32:38;15.90;99.90
9215;DHT22;4642;51.364;6.788;2023-06-14T00:35:04;15.90;99.90
9215;DHT22;4642;51.364;6.788;2023-06-14T00:37:30;15.90;99.90
9215;DHT22;4642;51.364;6.788;2023-06-14T00:39:55;15.80;99.90
9215;DHT22;4642;51.364;6.788;2023-06-14T00:42:28;15.80;99.90
9215;DHT22;4642;51.364;6.788;2023-06-14T00:44:54;15.80;99.90
9215;DHT22;4642;51.364;6.788;2023-06-14T00:47:19;15.80;99.90
9215;DHT22;4642;51.364;6.788;2023-06-14T00:49:46;15.80;99.90
9215;DHT22;4642;51.364;6.788;2023-06-14T00:52:13;15.70;99.90
9215;DHT22;4642;51.364;6.788;2023-06-14T00:54:40;15.70;99.90
9215;DHT22;4642;51.364;6.788;2023-06-14T00:57:06;15.60;99.90
9215;DHT22;4642;51.364;6.788;2023-06-14T00:59:33;15.60;99.90
9215;DHT22;4642;51.364;6.788;2023-06-14T01:01:58;15.60;99.90
9215;DHT22;4642;51.364;6.788;2023-06-14T01:04:24;15.50;99.90
9215;DHT22;4642;51.364;6.788;2023-06-14T01:10:44;15.50;99.90
9215;DHT22;4642;51.364;6.788;2023-06-14T01:13:38;15.40;99.90
9215;DHT22;4642;51.364;6.788;2023-06-14T01:15:39;15.40;99.90
9215;DHT22;4642;51.364;6.788;2023-06-14T01:18:06;15.30;99.90
9215;DHT22;4642;51.364;6.788;2023-06-14T01:20:33;15.30;99.90
9215;DHT22;4642;51.364;6.788;2023-06-14T01:23:01;15.30;99.90
9215;DHT22;4642;51.364;6.788;2023-06-14T01:25:27;15.20;99.90
9215;DHT22;4642;51.364;6.788;2023-06-14T01:27:57;15.20;99.90
9215;DHT22;4642;51.364;6.788;2023-06-14T01:30:24;15.10;99.90
9215;DHT22;4642;51.364;6.788;2023-06-14T01:32:52;15.10;99.90
9215;DHT22;4642;51.364;6.788;2023-06-14T01:35:18;15.10;99.90
9215;DHT22;4642;51.364;6.788;2023-06-14T01:37:44;15.10;1.00
9215;DHT22;4642;51.364;6.788;2023-06-14T01:40:12;15.10;1.00
9215;DHT22;4642;51.364;6.788;2023-06-14T01:42:39;15.10;1.00
9215;DHT22;4642;51.364;6.788;2023-06-14T01:45:06;15.10;1.00
9215;DHT22;4642;51.364;6.788;2023-06-14T01:47:32;15.00;1.00
9215;DHT22;4642;51.364;6.788;2023-06-14T01:49:58;15.00;1.00
9215;DHT22;4642;51.364;6.788;2023-06-14T01:52:24;15.00;1.00
9215;DHT22;4642;51.364;6.788;2023-06-14T01:54:50;14.90;1.00
9215;DHT22;4642;51.364;6.788;2023-06-14T01:57:16;14.90;1.00
9215;DHT22;4642;51.364;6.788;2023-06-14T01:59:42;14.90;1.00
9215;DHT22;4642;51.364;6.788;2023-06-14T02:02:08;14.80;1.00
9215;DHT22;4642;51.364;6.788;2023-06-14T02:04:33;14.80;1.00
9215;DHT22;4642;51.364;6.788;2023-06-14T02:06:59;14.80;1.00
9215;DHT22;4642;51.364;6.788;2023-06-14T02:09:25;14.80;1.00
9215;DHT22;4642;51.364;6.788;2023-06-14T02:11:50;14.80;1.00
9215;DHT22;4642;51.364;6.788;2023-06-14T02:14:16;14.80;1.00
9215;DHT22;4642;51.364;6.788;2023-06-14T02:16:42;14.70;1.00
9215;DHT22;4642;51.364;6.788;2023-06-14T02:19:17;14.70;1.00
9215;DHT22;4642;51.364;6.788;2023-06-14T02:21:43;14.70;1.00
9215;DHT22;4642;51.364;6.788;2023-06-14T02:24:09;14.70;1.00
9215;DHT22;4642;51.364;6.788;2023-06-14T02:26:35;14.60;1.00
9215;DHT22;4642;51.364;6.788;2023-06-14T02:29:01;14.70;1.00
9215;DHT22;4642;51.364;6.788;2023-06-14T02:31:26;14.60;1.00
9215;DHT22;4642;51.364;6.788;2023-06-14T02:33:52;14.60;1.00
9215;DHT22;4642;51.364;6.788;2023-06-14T02:36:18;14.60;1.00
9215;DHT22;4642;51.364;6.788;2023-06-14T02:38:43;14.60;1.00
9215;DHT22;4642;51.364;6.788;2023-06-14T02:41:09;14.50;1.00
9215;DHT22;4642;51.364;6.788;2023-06-14T02:43:34;14.50;1.00
9215;DHT22;4642;51.364;6.788;2023-06-14T02:46:00;14.50;1.00
9215;DHT22;4642;51.364;6.788;2023-06-14T02:48:27;14.50;1.00
9215;DHT22;4642;51.364;6.788;2023-06-14T02:50:52;14.40;1.00
9215;DHT22;4642;51.364;6.788;2023-06-14T02:53:18;14.40;1.00
9215;DHT22;4642;51.364;6.788;2023-06-14T02:55:44;14.40;1.00
9215;DHT22;4642;51.364;6.788;2023-06-14T02:58:09;14.30;1.00
9215;DHT22;4642;51.364;6.788;2023-06-14T03:00:35;14.40;1.00
9215;DHT22;4642;51.364;6.788;2023-06-14T03:03:01;14.30;1.00
9215;DHT22;4642;51.364;6.788;2023-06-14T03:05:27;14.30;1.00
9215;DHT22;4642;51.364;6.788;2023-06-14T03:07:53;14.30;1.00
9215;DHT22;4642;51.364;6.788;2023-06-14T03:10:19;14.30;1.00
9215;DHT22;4642;51.364;6.788;2023-06-14T03:12:45;14.20;1.00
9215;DHT22;4642;51.364;6.788;2023-06-14T03:15:10;14.20;1.00
9215;DHT22;4642;51.364;6.788;2023-06-14T03:17:38;14.10;1.00
9215;DHT22;4642;51.364;6.788;2023-06-14T03:20:04;14.10;1.00
9215;DHT22;4642;51.364;6.788;2023-06-14T03:22:31;14.20;1.00
9215;DHT22;4642;51.364;6.788;2023-06-14T03:24:58;14.10;1.00
9215;DHT22;4642;51.364;6.788;2023-06-14T03:27:24;14.10;1.00
9215;DHT22;4642;51.364;6.788;2023-06-14T03:29:51;14.10;1.00
9215;DHT22;4642;51.364;6.788;2023-06-14T03:32:16;14.00;1.00
9215;DHT22;4642;51.364;6.788;2023-06-14T03:34:42;14.10;1.00
9215;DHT22;4642;51.364;6.788;2023-06-14T03:37:08;14.10;1.00
9215;DHT22;4642;51.364;6.788;2023-06-14T03:39:33;14.00;1.00
9215;DHT22;4642;51.364;6.788;2023-06-14T03:41:59;14.00;1.00
9215;DHT22;4642;51.364;6.788;2023-06-14T03:44:26;14.00;1.00
9215;DHT22;4642;51.364;6.788;2023-06-14T03:46:52;14.00;1.00
9215;DHT22;4642;51.364;6.788;2023-06-14T03:49:18;14.00;1.00
9215;DHT22;4642;51.364;6.788;2023-06-14T03:51:44;14.00;1.00
9215;DHT22;4642;51.364;6.788;2023-06-14T03:54:10;14.00;1.00
9215;DHT22;4642;51.364;6.788;2023-06-14T03:56:35;14.00;1.00
9215;DHT22;4642;51.364;6.788;2023-06-14T03:59:01;14.00;1.00
9215;DHT22;4642;51.364;6.788;2023-06-14T04:01:27;14.00;1.00
9215;DHT22;4642;51.364;6.788;2023-06-14T04:03:56;14.00;1.00
9215;DHT22;4642;51.364;6.788;2023-06-14T04:06:22;14.00;1.00
9215;DHT22;4642;51.364;6.788;2023-06-14T04:08:50;14.00;1.00
9215;DHT22;4642;51.364;6.788;2023-06-14T04:11:16;14.00;1.00
9215;DHT22;4642;51.364;6.788;2023-06-14T04:13:41;14.00;1.00
9215;DHT22;4642;51.364;6.788;2023-06-14T04:16:07;14.00;1.00
9215;DHT22;4642;51.364;6.788;2023-06-14T04:18:33;14.00;1.00
9215;DHT22;4642;51.364;6.788;2023-06-14T04:20:58;14.10;1.00
9215;DHT22;4642;51.364;6.788;2023-06-14T04:23:24;14.10;1.00
9215;DHT22;4642;51.364;6.788;2023-06-14T04:25:50;14.20;1.00
9215;DHT22;4642;51.364;6.788;2023-06-14T04:28:16;14.20;1.00
9215;DHT22;4642;51.364;6.788;2023-06-14T04:30:42;14.20;1.00
9215;DHT22;4642;51.364;6.788;2023-06-14T04:33:08;14.20;1.00
9215;DHT22;4642;51.364;6.788;2023-06-14T04:35:35;14.40;1.00
9215;DHT22;4642;51.364;6.788;2023-06-14T04:38:01;14.40;99.90
9215;DHT22;4642;51.364;6.788;2023-06-14T04:40:30;14.50;99.90
9215;DHT22;4642;51.364;6.788;2023-06-14T04:42:55;14.60;99.90
9215;DHT22;4642;51.364;6.788;2023-06-14T04:45:21;14.60;99.90
9215;DHT22;4642;51.364;6.788;2023-06-14T04:47:47;14.70;99.90
9215;DHT22;4642;51.364;6.788;2023-06-14T04:50:12;14.80;99.90
9215;DHT22;4642;51.364;6.788;2023-06-14T04:52:38;14.80;99.90
9215;DHT22;4642;51.364;6.788;2023-06-14T04:55:04;14.90;99.90
9215;DHT22;4642;51.364;6.788;2023-06-14T04:57:31;15.00;99.90
9215;DHT22;4642;51.364;6.788;2023-06-14T04:59:56;15.00;99.90
9215;DHT22;4642;51.364;6.788;2023-06-14T05:02:23;15.10;99.90
9215;DHT22;4642;51.364;6.788;2023-06-14T05:04:49;15.00;99.90
9215;DHT22;4642;51.364;6.788;2023-06-14T05:07:15;15.10;99.90
9215;DHT22;4642;51.364;6.788;2023-06-14T05:09:40;15.20;99.90
9215;DHT22;4642;51.364;6.788;2023-06-14T05:12:06;15.30;99.90
9215;DHT22;4642;51.364;6.788;2023-06-14T05:14:35;15.40;99.90
9215;DHT22;4642;51.364;6.788;2023-06-14T05:17:01;15.40;99.90
9215;DHT22;4642;51.364;6.788;2023-06-14T05:19:27;15.50;99.90
9215;DHT22;4642;51.364;6.788;2023-06-14T05:21:53;15.60;99.90
9215;DHT22;4642;51.364;6.788;2023-06-14T05:24:19;15.60;99.90
9215;DHT22;4642;51.364;6.788;2023-06-14T05:26:45;15.70;99.90
9215;DHT22;4642;51.364;6.788;2023-06-14T05:29:11;15.70;99.90
9215;DHT22;4642;51.364;6.788;2023-06-14T05:31:37;15.80;99.90
9215;DHT22;4642;51.364;6.788;2023-06-14T05:34:03;15.90;99.90
9215;DHT22;4642;51.364;6.788;2023-06-14T05:36:28;16.00;99.90
9215;DHT22;4642;51.364;6.788;2023-06-14T05:38:54;16.00;99.90
9215;DHT22;4642;51.364;6.788;2023-06-14T05:41:26;16.10;99.90
9215;DHT22;4642;51.364;6.788;2023-06-14T05:43:53;16.20;99.90
9215;DHT22;4642;51.364;6.788;2023-06-14T05:46:19;16.30;66.90
9215;DHT22;4642;51.364;6.788;2023-06-14T05:48:48;16.30;99.90
9215;DHT22;4642;51.364;6.788;2023-06-14T05:51:14;16.40;99.90
9215;DHT22;4642;51.364;6.788;2023-06-14T05:53:40;16.40;99.90
9215;DHT22;4642;51.364;6.788;2023-06-14T05:56:05;16.60;36.80
9215;DHT22;4642;51.364;6.788;2023-06-14T05:58:31;16.60;99.90
9215;DHT22;4642;51.364;6.788;2023-06-14T06:00:56;16.60;98.30
9215;DHT22;4642;51.364;6.788;2023-06-14T06:03:23;16.70;86.10
9215;DHT22;4642;51.364;6.788;2023-06-14T06:05:48;16.80;95.30
9215;DHT22;4642;51.364;6.788;2023-06-14T06:08:14;16.80;66.00
9215;DHT22;4642;51.364;6.788;2023-06-14T06:10:39;16.90;99.90
9215;DHT22;4642;51.364;6.788;2023-06-14T06:13:05;17.00;99.90
9215;DHT22;4642;51.364;6.788;2023-06-14T06:15:30;17.00;26.20
9215;DHT22;4642;51.364;6.788;2023-06-14T06:17:56;17.10;32.90
9215;DHT22;4642;51.364;6.788;2023-06-14T06:20:23;17.20;19.70
9215;DHT22;4642;51.364;6.788;2023-06-14T06:22:53;17.30;6.20
9215;DHT22;4642;51.364;6.788;2023-06-14T06:25:19;17.40;1.00
9215;DHT22;4642;51.364;6.788;2023-06-14T06:27:44;17.50;1.00
9215;DHT22;4642;51.364;6.788;2023-06-14T06:30:11;17.50;1.00
9215;DHT22;4642;51.364;6.788;2023-06-14T06:32:36;17.60;1.00
9215;DHT22;4642;51.364;6.788;2023-06-14T06:35:02;17.60;1.00
9215;DHT22;4642;51.364;6.788;2023-06-14T06:37:28;17.80;1.00
9215;DHT22;4642;51.364;6.788;2023-06-14T06:39:54;17.80;1.00
9215;DHT22;4642;51.364;6.788;2023-06-14T06:42:19;18.00;1.00
9215;DHT22;4642;51.364;6.788;2023-06-14T06:44:45;18.00;1.00
9215;DHT22;4642;51.364;6.788;2023-06-14T06:47:10;18.10;1.00
9215;DHT22;4642;51.364;6.788;2023-06-14T06:49:38;18.10;1.00
9215;DHT22;4642;51.364;6.788;2023-06-14T06:52:05;18.20;1.00
9215;DHT22;4642;51.364;6.788;2023-06-14T06:54:32;18.30;1.00
9215;DHT22;4642;51.364;6.788;2023-06-14T06:56:58;18.30;1.00
9215;DHT22;4642;51.364;6.788;2023-06-14T06:59:23;18.40;1.00
9215;DHT22;4642;51.364;6.788;2023-06-14T07:01:49;18.50;1.00
9215;DHT22;4642;51.364;6.788;2023-06-14T07:04:15;18.60;1.00
9215;DHT22;4642;51.364;6.788;2023-06-14T07:06:42;18.60;1.00
9215;DHT22;4642;51.364;6.788;2023-06-14T07:09:08;18.70;1.00
9215;DHT22;4642;51.364;6.788;2023-06-14T07:11:38;18.70;1.00
9215;DHT22;4642;51.364;6.788;2023-06-14T07:14:04;18.70;1.00
9215;DHT22;4642;51.364;6.788;2023-06-14T07:16:29;18.80;1.00
9215;DHT22;4642;51.364;6.788;2023-06-14T07:18:55;18.80;1.00
9215;DHT22;4642;51.364;6.788;2023-06-14T07:21:20;18.90;1.00
9215;DHT22;4642;51.364;6.788;2023-06-14T07:23:46;19.00;1.00
9215;DHT22;4642;51.364;6.788;2023-06-14T07:26:11;19.00;1.00
9215;DHT22;4642;51.364;6.788;2023-06-14T07:28:37;19.20;99.90
9215;DHT22;4642;51.364;6.788;2023-06-14T07:31:02;19.20;99.90
9215;DHT22;4642;51.364;6.788;2023-06-14T07:33:28;19.20;99.90
9215;DHT22;4642;51.364;6.788;2023-06-14T07:35:54;19.10;1.00
9215;DHT22;4642;51.364;6.788;2023-06-14T07:38:19;19.40;99.90
9215;DHT22;4642;51.364;6.788;2023-06-14T07:40:45;19.40;99.90
9215;DHT22;4642;51.364;6.788;2023-06-14T07:43:10;19.50;99.90
9215;DHT22;4642;51.364;6.788;2023-06-14T07:45:37;19.60;99.90
9215;DHT22;4642;51.364;6.788;2023-06-14T07:48:03;19.70;99.90
9215;DHT22;4642;51.364;6.788;2023-06-14T07:50:28;19.70;99.90
9215;DHT22;4642;51.364;6.788;2023-06-14T07:52:54;19.70;99.90
9215;DHT22;4642;51.364;6.788;2023-06-14T07:55:20;19.80;99.90
9215;DHT22;4642;51.364;6.788;2023-06-14T07:57:45;19.80;99.90
9215;DHT22;4642;51.364;6.788;2023-06-14T08:00:12;19.90;99.90
9215;DHT22;4642;51.364;6.788;2023-06-14T08:02:41;20.00;99.90
9215;DHT22;4642;51.364;6.788;2023-06-14T08:05:07;20.10;47.70
9215;DHT22;4642;51.364;6.788;2023-06-14T08:07:34;20.20;99.90
9215;DHT22;4642;51.364;6.788;2023-06-14T08:09:59;20.20;99.90
9215;DHT22;4642;51.364;6.788;2023-06-14T08:12:26;20.30;99.90
9215;DHT22;4642;51.364;6.788;2023-06-14T08:14:51;20.40;99.90
9215;DHT22;4642;51.364;6.788;2023-06-14T08:17:17;20.40;22.40
9215;DHT22;4642;51.364;6.788;2023-06-14T08:19:42;20.50;99.90
9215;DHT22;4642;51.364;6.788;2023-06-14T08:22:08;20.50;1.00
9215;DHT22;4642;51.364;6.788;2023-06-14T08:24:37;20.60;1.00
9215;DHT22;4642;51.364;6.788;2023-06-14T08:27:02;20.80;1.00
9215;DHT22;4642;51.364;6.788;2023-06-14T08:29:28;20.70;1.00
9215;DHT22;4642;51.364;6.788;2023-06-14T08:31:55;20.80;1.00
9215;DHT22;4642;51.364;6.788;2023-06-14T08:34:21;20.70;1.00
9215;DHT22;4642;51.364;6.788;2023-06-14T08:36:51;20.90;1.00
9215;DHT22;4642;51.364;6.788;2023-06-14T08:39:17;20.90;1.00
9215;DHT22;4642;51.364;6.788;2023-06-14T08:41:46;21.10;1.00
9215;DHT22;4642;51.364;6.788;2023-06-14T08:44:16;21.10;1.00
9215;DHT22;4642;51.364;6.788;2023-06-14T08:46:42;21.10;1.00
9215;DHT22;4642;51.364;6.788;2023-06-14T08:49:08;21.10;1.00
9215;DHT22;4642;51.364;6.788;2023-06-14T08:51:37;21.10;1.00
9215;DHT22;4642;51.364;6.788;2023-06-14T08:54:03;21.40;1.00
9215;DHT22;4642;51.364;6.788;2023-06-14T08:56:30;21.30;99.90
9215;DHT22;4642;51.364;6.788;2023-06-14T08:58:57;21.30;99.90
9215;DHT22;4642;51.364;6.788;2023-06-14T09:01:25;21.40;99.90
9215;DHT22;4642;51.364;6.788;2023-06-14T09:03:52;21.40;99.90
9215;DHT22;4642;51.364;6.788;2023-06-14T09:06:21;21.40;1.00
9215;DHT22;4642;51.364;6.788;2023-06-14T09:08:48;21.50;99.90
9215;DHT22;4642;51.364;6.788;2023-06-14T09:11:18;21.50;99.90
9215;DHT22;4642;51.364;6.788;2023-06-14T09:13:45;21.60;99.90
9215;DHT22;4642;51.364;6.788;2023-06-14T09:16:12;21.70;99.90
9215;DHT22;4642;51.364;6.788;2023-06-14T09:18:41;21.60;99.90
9215;DHT22;4642;51.364;6.788;2023-06-14T09:21:10;21.70;99.90
9215;DHT22;4642;51.364;6.788;2023-06-14T09:23:47;21.60;99.90
9215;DHT22;4642;51.364;6.788;2023-06-14T09:26:17;21.70;12.10
9215;DHT22;4642;51.364;6.788;2023-06-14T09:28:46;21.80;94.10
9215;DHT22;4642;51.364;6.788;2023-06-14T09:31:13;21.70;1.00
9215;DHT22;4642;51.364;6.788;2023-06-14T09:33:41;21.70;99.90
9215;DHT22;4642;51.364;6.788;2023-06-14T09:36:13;21.80;99.90
9215;DHT22;4642;51.364;6.788;2023-06-14T09:38:41;21.80;76.90
9215;DHT22;4642;51.364;6.788;2023-06-14T09:41:06;21.90;99.90
9215;DHT22;4642;51.364;6.788;2023-06-14T09:43:33;22.00;99.90
9215;DHT22;4642;51.364;6.788;2023-06-14T09:46:00;22.00;1.00
9215;DHT22;4642;51.364;6.788;2023-06-14T09:48:26;22.10;1.00
9215;DHT22;4642;51.364;6.788;2023-06-14T09:50:52;22.10;1.00
9215;DHT22;4642;51.364;6.788;2023-06-14T09:53:21;22.10;99.90
9215;DHT22;4642;51.364;6.788;2023-06-14T09:55:49;22.30;1.00
9215;DHT22;4642;51.364;6.788;2023-06-14T09:58:16;22.30;1.00
9215;DHT22;4642;51.364;6.788;2023-06-14T10:00:43;22.40;99.90
9215;DHT22;4642;51.364;6.788;2023-06-14T10:03:13;22.40;1.00
9215;DHT22;4642;51.364;6.788;2023-06-14T10:05:43;22.40;98.80
9215;DHT22;4642;51.364;6.788;2023-06-14T10:08:11;22.50;96.20
9215;DHT22;4642;51.364;6.788;2023-06-14T10:10:39;22.50;99.90
9215;DHT22;4642;51.364;6.788;2023-06-14T10:13:06;22.70;99.90
9215;DHT22;4642;51.364;6.788;2023-06-14T10:15:58;22.80;1.00
9215;DHT22;4642;51.364;6.788;2023-06-14T10:23:43;22.80;99.90
9215;DHT22;4642;51.364;6.788;2023-06-14T10:26:26;22.80;1.00
9215;DHT22;4642;51.364;6.788;2023-06-14T10:29:21;22.80;99.90
9215;DHT22;4642;51.364;6.788;2023-06-14T10:31:48;22.90;29.80
9215;DHT22;4642;51.364;6.788;2023-06-14T10:34:34;22.80;1.00
9215;DHT22;4642;51.364;6.788;2023-06-14T10:37:04;22.90;1.00
9215;DHT22;4642;51.364;6.788;2023-06-14T10:39:31;22.90;1.00
9215;DHT22;4642;51.364;6.788;2023-06-14T10:41:57;22.90;99.90
9215;DHT22;4642;51.364;6.788;2023-06-14T10:46:56;23.10;1.00
9215;DHT22;4642;51.364;6.788;2023-06-14T10:52:11;23.30;1.00
9215;DHT22;4642;51.364;6.788;2023-06-14T11:00:08;23.30;99.90
9215;DHT22;4642;51.364;6.788;2023-06-14T11:05:27;23.30;99.90
9215;DHT22;4642;51.364;6.788;2023-06-14T11:10:47;23.40;99.90
9215;DHT22;4642;51.364;6.788;2023-06-14T11:13:16;23.50;22.20
9215;DHT22;4642;51.364;6.788;2023-06-14T11:15:47;23.50;56.80
9215;DHT22;4642;51.364;6.788;2023-06-14T11:18:13;23.60;99.90
9215;DHT22;4642;51.364;6.788;2023-06-14T11:20:39;23.60;1.00
9215;DHT22;4642;51.364;6.788;2023-06-14T11:23:08;23.60;99.90
9215;DHT22;4642;51.364;6.788;2023-06-14T11:25:34;23.70;99.90
9215;DHT22;4642;51.364;6.788;2023-06-14T11:27:59;23.70;99.90
9215;DHT22;4642;51.364;6.788;2023-06-14T11:30:25;23.70;1.00
9215;DHT22;4642;51.364;6.788;2023-06-14T11:32:52;23.70;1.00
9215;DHT22;4642;51.364;6.788;2023-06-14T11:35:21;23.60;99.90
9215;DHT22;4642;51.364;6.788;2023-06-14T11:37:48;23.70;99.90
9215;DHT22;4642;51.364;6.788;2023-06-14T11:40:15;23.70;99.90
9215;DHT22;4642;51.364;6.788;2023-06-14T11:42:41;23.70;99.90
9215;DHT22;4642;51.364;6.788;2023-06-14T11:45:08;23.70;99.90
9215;DHT22;4642;51.364;6.788;2023-06-14T11:47:35;23.80;1.00
9215;DHT22;4642;51.364;6.788;2023-06-14T11:50:02;24.10;99.90
9215;DHT22;4642;51.364;6.788;2023-06-14T11:52:28;24.00;99.90
9215;DHT22;4642;51.364;6.788;2023-06-14T11:54:54;23.90;99.90
9215;DHT22;4642;51.364;6.788;2023-06-14T11:57:19;23.90;99.90
9215;DHT22;4642;51.364;6.788;2023-06-14T11:59:46;23.80;1.00
9215;DHT22;4642;51.364;6.788;2023-06-14T12:02:16;23.90;99.90
9215;DHT22;4642;51.364;6.788;2023-06-14T12:04:42;24.00;1.00
9215;DHT22;4642;51.364;6.788;2023-06-14T12:07:15;24.10;99.90
9215;DHT22;4642;51.364;6.788;2023-06-14T12:12:28;24.10;99.90
9215;DHT22;4642;51.364;6.788;2023-06-14T12:14:57;24.00;95.20
9215;DHT22;4642;51.364;6.788;2023-06-14T12:17:22;24.00;1.00
9215;DHT22;4642;51.364;6.788;2023-06-14T12:19:49;24.10;99.90
9215;DHT22;4642;51.364;6.788;2023-06-14T12:22:16;24.30;1.00
9215;DHT22;4642;51.364;6.788;2023-06-14T12:24:45;24.30;99.90
9215;DHT22;4642;51.364;6.788;2023-06-14T12:27:11;24.50;99.90
9215;DHT22;4642;51.364;6.788;2023-06-14T12:29:41;24.50;99.90
9215;DHT22;4642;51.364;6.788;2023-06-14T12:32:09;24.50;1.00
9215;DHT22;4642;51.364;6.788;2023-06-14T12:34:35;24.50;99.90
9215;DHT22;4642;51.364;6.788;2023-06-14T12:37:01;24.50;99.90
9215;DHT22;4642;51.364;6.788;2023-06-14T12:39:26;24.60;1.00
9215;DHT22;4642;51.364;6.788;2023-06-14T12:41:53;24.60;1.00
9215;DHT22;4642;51.364;6.788;2023-06-14T12:44:19;24.60;1.00
9215;DHT22;4642;51.364;6.788;2023-06-14T12:46:44;24.80;99.90
9215;DHT22;4642;51.364;6.788;2023-06-14T12:49:11;24.80;99.90
9215;DHT22;4642;51.364;6.788;2023-06-14T12:51:40;24.70;1.00
9215;DHT22;4642;51.364;6.788;2023-06-14T12:54:06;24.70;99.90
9215;DHT22;4642;51.364;6.788;2023-06-14T12:56:32;24.70;1.00
9215;DHT22;4642;51.364;6.788;2023-06-14T12:58:58;24.70;1.00
9215;DHT22;4642;51.364;6.788;2023-06-14T13:01:24;24.80;99.90
9215;DHT22;4642;51.364;6.788;2023-06-14T13:03:49;24.90;91.30
9215;DHT22;4642;51.364;6.788;2023-06-14T13:06:17;25.00;1.00
9215;DHT22;4642;51.364;6.788;2023-06-14T13:08:42;24.90;1.00
9215;DHT22;4642;51.364;6.788;2023-06-14T13:11:08;25.20;1.00
9215;DHT22;4642;51.364;6.788;2023-06-14T13:13:34;25.00;99.90
9215;DHT22;4642;51.364;6.788;2023-06-14T13:15:59;24.90;99.90
9215;DHT22;4642;51.364;6.788;2023-06-14T13:18:25;25.20;99.90
9215;DHT22;4642;51.364;6.788;2023-06-14T13:20:51;25.10;1.00
9215;DHT22;4642;51.364;6.788;2023-06-14T13:23:17;25.20;1.00
9215;DHT22;4642;51.364;6.788;2023-06-14T13:25:43;25.30;1.00
9215;DHT22;4642;51.364;6.788;2023-06-14T13:28:08;25.40;1.00
9215;DHT22;4642;51.364;6.788;2023-06-14T13:30:34;25.50;1.00
9215;DHT22;4642;51.364;6.788;2023-06-14T13:33:00;25.60;1.00
9215;DHT22;4642;51.364;6.788;2023-06-14T13:35:26;25.70;1.00
9215;DHT22;4642;51.364;6.788;2023-06-14T13:37:52;25.80;1.00
9215;DHT22;4642;51.364;6.788;2023-06-14T13:40:18;25.90;1.00
9215;DHT22;4642;51.364;6.788;2023-06-14T13:42:44;25.90;1.00
9215;DHT22;4642;51.364;6.788;2023-06-14T13:45:11;26.10;1.00
9215;DHT22;4642;51.364;6.788;2023-06-14T13:47:36;26.20;1.00
9215;DHT22;4642;51.364;6.788;2023-06-14T13:50:03;26.30;99.90
9215;DHT22;4642;51.364;6.788;2023-06-14T13:52:29;26.10;99.90
9215;DHT22;4642;51.364;6.788;2023-06-14T13:54:54;26.30;99.90
9215;DHT22;4642;51.364;6.788;2023-06-14T13:57:20;26.40;1.00
9215;DHT22;4642;51.364;6.788;2023-06-14T13:59:45;26.60;1.00
9215;DHT22;4642;51.364;6.788;2023-06-14T14:02:11;26.60;99.90
9215;DHT22;4642;51.364;6.788;2023-06-14T14:04:37;26.60;99.90
9215;DHT22;4642;51.364;6.788;2023-06-14T14:07:04;26.60;99.90
9215;DHT22;4642;51.364;6.788;2023-06-14T14:09:31;26.70;99.90
9215;DHT22;4642;51.364;6.788;2023-06-14T14:11:58;26.90;99.90
9215;DHT22;4642;51.364;6.788;2023-06-14T14:14:24;27.00;99.90
9215;DHT22;4642;51.364;6.788;2023-06-14T14:16:50;27.20;99.90
9215;DHT22;4642;51.364;6.788;2023-06-14T14:19:22;27.30;99.90
9215;DHT22;4642;51.364;6.788;2023-06-14T14:21:48;27.30;99.90
9215;DHT22;4642;51.364;6.788;2023-06-14T14:24:14;27.30;99.90
9215;DHT22;4642;51.364;6.788;2023-06-14T14:26:39;27.30;99.90
9215;DHT22;4642;51.364;6.788;2023-06-14T14:29:05;27.30;44.70
9215;DHT22;4642;51.364;6.788;2023-06-14T14:31:31;27.30;56.60
9215;DHT22;4642;51.364;6.788;2023-06-14T14:33:57;27.40;27.70
9215;DHT22;4642;51.364;6.788;2023-06-14T14:36:22;27.40;54.60
9215;DHT22;4642;51.364;6.788;2023-06-14T14:38:48;27.20;1.00
9215;DHT22;4642;51.364;6.788;2023-06-14T14:41:14;27.10;1.00
9215;DHT22;4642;51.364;6.788;2023-06-14T14:43:39;27.00;1.00
9215;DHT22;4642;51.364;6.788;2023-06-14T14:46:05;27.00;1.00
9215;DHT22;4642;51.364;6.788;2023-06-14T14:48:30;26.80;1.00
9215;DHT22;4642;51.364;6.788;2023-06-14T14:50:56;26.90;1.00
9215;DHT22;4642;51.364;6.788;2023-06-14T14:53:22;26.90;1.00
9215;DHT22;4642;51.364;6.788;2023-06-14T14:55:47;26.90;1.00
9215;DHT22;4642;51.364;6.788;2023-06-14T14:58:13;26.80;1.00
9215;DHT22;4642;51.364;6.788;2023-06-14T15:00:42;27.00;53.60
9215;DHT22;4642;51.364;6.788;2023-06-14T15:03:07;27.10;1.00
9215;DHT22;4642;51.364;6.788;2023-06-14T15:05:33;27.20;1.00
9215;DHT22;4642;51.364;6.788;2023-06-14T15:07:58;27.00;1.00
9215;DHT22;4642;51.364;6.788;2023-06-14T15:10:24;27.20;1.00
9215;DHT22;4642;51.364;6.788;2023-06-14T15:12:50;27.40;99.90
9215;DHT22;4642;51.364;6.788;2023-06-14T15:15:15;27.30;9.10
9215;DHT22;4642;51.364;6.788;2023-06-14T15:17:41;27.40;94.30
9215;DHT22;4642;51.364;6.788;2023-06-14T15:20:07;27.50;17.70
9215;DHT22;4642;51.364;6.788;2023-06-14T15:22:32;27.60;1.00
9215;DHT22;4642;51.364;6.788;2023-06-14T15:24:58;27.80;1.00
9215;DHT22;4642;51.364;6.788;2023-06-14T15:27:24;27.80;1.00
9215;DHT22;4642;51.364;6.788;2023-06-14T15:29:50;27.80;1.00
9215;DHT22;4642;51.364;6.788;2023-06-14T15:32:15;27.70;1.00
9215;DHT22;4642;51.364;6.788;2023-06-14T15:34:41;27.80;1.00
9215;DHT22;4642;51.364;6.788;2023-06-14T15:37:07;27.80;1.00
9215;DHT22;4642;51.364;6.788;2023-06-14T15:39:32;27.90;1.00
9215;DHT22;4642;51.364;6.788;2023-06-14T15:41:58;27.80;1.00
9215;DHT22;4642;51.364;6.788;2023-06-14T15:44:25;27.80;1.00
9215;DHT22;4642;51.364;6.788;2023-06-14T15:46:50;27.70;1.00
9215;DHT22;4642;51.364;6.788;2023-06-14T15:49:16;27.70;1.00
9215;DHT22;4642;51.364;6.788;2023-06-14T15:51:41;27.60;1.00
9215;DHT22;4642;51.364;6.788;2023-06-14T15:54:07;27.70;1.00
9215;DHT22;4642;51.364;6.788;2023-06-14T15:56:33;27.80;1.00
9215;DHT22;4642;51.364;6.788;2023-06-14T15:59:02;27.70;1.00
9215;DHT22;4642;51.364;6.788;2023-06-14T16:01:27;27.70;1.00
9215;DHT22;4642;51.364;6.788;2023-06-14T16:03:53;27.70;1.00
9215;DHT22;4642;51.364;6.788;2023-06-14T16:06:19;27.80;1.00
9215;DHT22;4642;51.364;6.788;2023-06-14T16:08:45;27.80;1.00
9215;DHT22;4642;51.364;6.788;2023-06-14T16:11:11;27.70;1.00
9215;DHT22;4642;51.364;6.788;2023-06-14T16:13:36;27.80;1.00
9215;DHT22;4642;51.364;6.788;2023-06-14T16:16:02;27.80;1.00
9215;DHT22;4642;51.364;6.788;2023-06-14T16:18:28;27.70;1.00
9215;DHT22;4642;51.364;6.788;2023-06-14T16:20:53;27.60;1.00
9215;DHT22;4642;51.364;6.788;2023-06-14T16:23:21;27.50;1.00
9215;DHT22;4642;51.364;6.788;2023-06-14T16:25:47;27.50;1.00
9215;DHT22;4642;51.364;6.788;2023-06-14T16:28:14;27.40;1.00
9215;DHT22;4642;51.364;6.788;2023-06-14T16:30:39;27.30;1.00
9215;DHT22;4642;51.364;6.788;2023-06-14T16:33:05;27.20;1.00